Time;durP1;ratioP1;P1;durP2;ratioP2;P2;SDS_P1;SDS_P2;PMS_P1;PMS_P2;Temp;Humidity;BMP_temperature;BMP_pressure;BME280_temperature;BME280_humidity;BME280_pressure;Samples;Min_cycle;Max_cycle;Signal;HPM_P1;HPM_P2
2023/05/30 00:02:06;;;;;;;1.38;1.30;;;21.20;69.00;;;;;;5052177;28;20045;-79
2023/05/30 00:04:32;;;;;;;2.25;1.55;;;21.20;69.00;;;;;;5050823;28;20044;-79
2023/05/30 00:06:57;;;;;;;1.45;1.35;;;21.30;69.00;;;;;;5051088;28;20123;-78
2023/05/30 00:09:23;;;;;;;1.70;1.60;;;21.30;69.00;;;;;;5048894;28;20395;-78
2023/05/30 00:11:49;;;;;;;1.55;1.45;;;21.20;69.70;;;;;;5048726;28;20064;-78
2023/05/30 00:14:20;;;;;;;1.33;1.23;;;21.30;69.00;;;;;;5047752;28;20045;-78
2023/05/30 00:16:48;;;;;;;1.50;1.40;;;21.30;69.00;;;;;;5053395;28;20158;-78
2023/05/30 00:19:14;;;;;;;1.50;1.40;;;21.20;68.90;;;;;;5051995;28;20106;-78
2023/05/30 00:21:40;;;;;;;2.85;1.77;;;21.30;69.00;;;;;;5067605;28;20103;-78
2023/05/30 00:24:06;;;;;;;1.50;1.40;;;21.20;68.90;;;;;;5052803;28;20040;-78
2023/05/30 00:26:32;;;;;;;1.48;1.38;;;21.20;68.90;;;;;;5039492;28;20053;-79
2023/05/30 00:28:57;;;;;;;1.67;1.58;;;21.20;68.90;;;;;;5053798;28;20290;-78
2023/05/30 00:31:23;;;;;;;1.40;1.23;;;21.20;68.90;;;;;;5047951;28;20041;-78
2023/05/30 00:33:49;;;;;;;1.80;1.70;;;21.30;69.00;;;;;;5025405;28;20506;-79
2023/05/30 00:36:15;;;;;;;3.35;1.73;;;21.20;68.90;;;;;;5055971;28;20036;-78
2023/05/30 00:38:41;;;;;;;1.60;1.50;;;21.20;69.80;;;;;;5054168;28;20051;-78
2023/05/30 00:41:06;;;;;;;1.63;1.52;;;21.20;68.90;;;;;;5056294;28;20091;-78
2023/05/30 00:43:32;;;;;;;1.30;1.20;;;21.20;68.90;;;;;;5051803;28;20044;-78
2023/05/30 00:45:58;;;;;;;2.80;1.55;;;21.20;69.70;;;;;;5050166;28;20044;-78
2023/05/30 00:48:23;;;;;;;1.50;1.40;;;21.20;68.90;;;;;;5035721;28;20541;-79
2023/05/30 00:50:49;;;;;;;1.25;1.23;;;21.20;68.80;;;;;;5038556;28;20052;-78
2023/05/30 00:53:15;;;;;;;1.60;1.50;;;21.20;68.80;;;;;;5032732;28;20047;-78
2023/05/30 00:55:41;;;;;;;1.42;1.33;;;21.20;68.80;;;;;;5047603;28;20532;-78
2023/05/30 00:58:06;;;;;;;1.63;1.52;;;21.20;68.80;;;;;;5051760;28;20537;-79
2023/05/30 01:00:37;;;;;;;1.30;1.20;;;21.20;68.80;;;;;;5016575;28;20033;-79
2023/05/30 01:03:03;;;;;;;1.50;1.40;;;21.20;68.80;;;;;;5029771;28;20048;-78
2023/05/30 01:05:28;;;;;;;1.30;1.20;;;21.20;68.80;;;;;;5018296;28;20083;-78
2023/05/30 01:07:54;;;;;;;1.35;1.25;;;21.20;68.80;;;;;;5052908;28;20059;-78
2023/05/30 01:10:20;;;;;;;1.60;1.42;;;21.20;68.80;;;;;;5042444;28;20155;-78
2023/05/30 01:13:17;;;;;;;1.50;1.40;;;21.20;68.70;;;;;;5027048;28;20050;-78
2023/05/30 01:15:50;;;;;;;1.27;0.95;;;21.20;68.70;;;;;;5032410;28;20657;-78
2023/05/30 01:18:31;;;;;;;1.30;1.20;;;21.20;68.70;;;;;;5037781;28;20048;-78
2023/05/30 01:21:02;;;;;;;1.60;1.50;;;21.20;68.80;;;;;;5044141;28;20407;-79
2023/05/30 01:23:52;;;;;;;1.20;1.10;;;21.20;69.60;;;;;;5034901;28;20121;-78
2023/05/30 01:26:26;;;;;;;1.60;1.50;;;21.20;68.70;;;;;;5052125;28;20120;-78
2023/05/30 01:28:54;;;;;;;1.27;1.20;;;21.20;69.00;;;;;;5040952;28;20079;-79
2023/05/30 01:31:20;;;;;;;1.20;1.10;;;21.20;68.80;;;;;;5048276;28;20485;-79
2023/05/30 01:33:46;;;;;;;1.30;1.20;;;21.20;68.80;;;;;;5029134;28;20736;-79
2023/05/30 01:36:11;;;;;;;2.08;1.60;;;21.20;68.90;;;;;;5033192;28;20033;-78
2023/05/30 01:38:37;;;;;;;1.30;1.10;;;21.20;68.90;;;;;;5050937;28;20041;-78
2023/05/30 01:41:04;;;;;;;1.27;1.17;;;21.20;68.60;;;;;;5055205;28;20041;-78
2023/05/30 01:43:42;;;;;;;1.48;1.38;;;21.20;68.60;;;;;;5053986;28;20036;-78
2023/05/30 01:46:16;;;;;;;1.60;1.50;;;21.20;68.60;;;;;;5057969;28;20060;-78
2023/05/30 01:49:16;;;;;;;1.35;1.25;;;21.20;68.70;;;;;;5056310;28;20056;-78
2023/05/30 01:51:47;;;;;;;1.60;1.50;;;21.20;68.70;;;;;;5051947;28;20140;-79
2023/05/30 01:54:15;;;;;;;1.55;1.45;;;21.20;68.90;;;;;;5049113;28;20060;-78
2023/05/30 01:56:41;;;;;;;1.20;1.10;;;21.20;68.80;;;;;;5038695;28;20041;-78
2023/05/30 01:59:07;;;;;;;1.20;1.10;;;21.20;69.10;;;;;;5036575;28;20044;-78
2023/05/30 02:01:32;;;;;;;1.45;1.35;;;21.20;69.10;;;;;;5022681;28;20063;-78
2023/05/30 02:03:58;;;;;;;1.30;1.20;;;21.20;69.10;;;;;;5050134;28;20060;-78
2023/05/30 02:06:24;;;;;;;1.30;1.20;;;21.20;69.10;;;;;;5023742;28;20029;-78
2023/05/30 02:08:50;;;;;;;1.52;1.40;;;21.20;69.70;;;;;;5056866;28;20049;-79
2023/05/30 02:11:15;;;;;;;1.77;1.33;;;21.20;69.10;;;;;;5038963;28;20050;-79
2023/05/30 02:13:41;;;;;;;1.60;1.50;;;21.20;68.90;;;;;;5055082;28;20060;-78
2023/05/30 02:16:07;;;;;;;1.42;1.33;;;21.20;68.90;;;;;;5044072;28;20075;-78
2023/05/30 02:18:34;;;;;;;1.17;1.08;;;21.20;68.90;;;;;;5056435;28;20048;-78
2023/05/30 02:21:00;;;;;;;1.23;1.13;;;21.20;68.90;;;;;;5054469;28;20047;-78
2023/05/30 02:23:26;;;;;;;1.33;1.20;;;21.20;68.90;;;;;;5047165;28;20037;-78
2023/05/30 02:25:51;;;;;;;1.02;1.00;;;21.20;68.90;;;;;;5060899;28;20063;-79
2023/05/30 02:28:17;;;;;;;1.52;1.42;;;21.20;68.80;;;;;;5039638;28;20052;-79
2023/05/30 02:30:42;;;;;;;1.50;1.20;;;21.20;68.90;;;;;;5054079;28;20044;-79
2023/05/30 02:33:08;;;;;;;1.20;1.10;;;21.10;68.90;;;;;;5057192;28;20458;-79
2023/05/30 02:35:33;;;;;;;1.17;1.17;;;21.10;68.90;;;;;;5045229;28;20514;-79
2023/05/30 02:37:59;;;;;;;1.38;1.27;;;21.10;68.90;;;;;;5057624;28;20052;-78
2023/05/30 02:40:25;;;;;;;1.38;1.27;;;21.10;68.90;;;;;;5056124;28;20033;-79
2023/05/30 02:42:50;;;;;;;1.60;1.50;;;21.10;68.80;;;;;;5053194;28;20045;-79
2023/05/30 02:45:16;;;;;;;1.40;1.20;;;21.10;68.90;;;;;;5053031;28;20041;-79
2023/05/30 02:47:41;;;;;;;1.30;1.20;;;21.10;69.00;;;;;;5057238;28;20552;-79
2023/05/30 02:50:07;;;;;;;1.00;1.00;;;21.10;68.80;;;;;;5039181;28;20071;-78
2023/05/30 02:52:33;;;;;;;1.27;1.17;;;21.10;68.80;;;;;;5071162;28;20045;-77
2023/05/30 02:54:59;;;;;;;0.95;0.95;;;21.10;68.80;;;;;;5054907;28;20091;-78
2023/05/30 02:57:24;;;;;;;1.20;1.08;;;21.10;68.80;;;;;;5054967;28;20037;-79
2023/05/30 02:59:51;;;;;;;1.13;1.02;;;21.10;68.80;;;;;;5053544;28;20049;-79
2023/05/30 03:02:16;;;;;;;1.40;1.30;;;21.10;68.70;;;;;;5052352;28;20042;-79
2023/05/30 03:04:46;;;;;;;1.30;1.20;;;21.10;68.50;;;;;;5050169;28;20549;-78
2023/05/30 03:07:17;;;;;;;1.23;1.13;;;21.10;69.30;;;;;;5051769;28;20040;-78
2023/05/30 03:09:43;;;;;;;1.45;1.30;;;21.10;68.60;;;;;;5044410;28;20049;-78
2023/05/30 03:12:09;;;;;;;1.17;1.08;;;21.10;69.50;;;;;;5046021;28;20055;-78
2023/05/30 03:14:35;;;;;;;1.40;1.30;;;21.10;68.70;;;;;;5051685;28;20653;-79
2023/05/30 03:17:00;;;;;;;1.38;1.27;;;21.10;68.60;;;;;;5053357;28;20502;-79
2023/05/30 03:19:26;;;;;;;1.15;1.05;;;21.10;68.60;;;;;;5051466;28;20067;-79
2023/05/30 03:21:52;;;;;;;1.45;1.25;;;21.10;68.50;;;;;;5049915;28;20068;-78
2023/05/30 03:24:17;;;;;;;1.10;1.00;;;21.10;68.50;;;;;;5047810;28;20532;-79
2023/05/30 03:26:43;;;;;;;1.30;1.20;;;21.10;68.40;;;;;;5052077;28;20037;-78
2023/05/30 03:29:09;;;;;;;1.27;1.17;;;21.10;68.40;;;;;;5051781;28;20049;-78
2023/05/30 03:31:35;;;;;;;1.25;1.15;;;21.00;68.40;;;;;;5056229;28;20033;-78
2023/05/30 03:34:01;;;;;;;1.15;1.05;;;21.10;68.40;;;;;;5049842;28;20091;-79
2023/05/30 03:36:27;;;;;;;1.63;1.52;;;21.10;68.40;;;;;;5036221;28;20544;-79
2023/05/30 03:38:53;;;;;;;1.40;1.30;;;21.10;68.40;;;;;;5051547;28;20558;-79
2023/05/30 03:41:19;;;;;;;0.93;0.90;;;21.00;68.20;;;;;;5050468;28;20064;-78
2023/05/30 03:43:45;;;;;;;1.17;1.05;;;21.00;68.20;;;;;;5059033;28;20069;-79
2023/05/30 03:46:10;;;;;;;1.13;1.13;;;21.10;68.20;;;;;;5049096;28;20041;-79
2023/05/30 03:48:36;;;;;;;1.73;1.20;;;21.10;68.20;;;;;;5050232;28;20048;-79
2023/05/30 03:51:01;;;;;;;1.40;1.23;;;21.10;68.20;;;;;;5054634;28;20547;-78
2023/05/30 03:53:27;;;;;;;1.13;1.02;;;21.10;68.20;;;;;;5054991;28;20037;-78
2023/05/30 03:55:53;;;;;;;1.65;1.20;;;21.00;68.10;;;;;;5052418;28;20401;-79
2023/05/30 03:58:18;;;;;;;2.20;1.17;;;21.00;68.20;;;;;;5052136;28;20083;-79
2023/05/30 04:00:44;;;;;;;1.25;1.15;;;21.00;68.10;;;;;;5045549;28;20160;-79
2023/05/30 04:03:09;;;;;;;1.00;1.00;;;21.00;68.20;;;;;;5053370;28;20533;-79
2023/05/30 04:05:35;;;;;;;1.40;1.30;;;21.00;68.20;;;;;;5051251;28;20132;-79
2023/05/30 04:08:01;;;;;;;1.08;1.02;;;21.00;68.20;;;;;;5054428;28;20461;-79
2023/05/30 04:10:26;;;;;;;1.30;1.23;;;21.00;68.20;;;;;;5056747;28;20501;-78
2023/05/30 04:12:52;;;;;;;1.27;1.17;;;21.00;68.20;;;;;;5048308;28;20065;-78
2023/05/30 04:15:17;;;;;;;1.30;1.13;;;21.00;68.20;;;;;;5046390;28;20053;-79
2023/05/30 04:17:43;;;;;;;0.93;0.82;;;21.00;68.10;;;;;;5050066;28;20044;-78
2023/05/30 04:20:09;;;;;;;1.02;1.00;;;21.00;68.10;;;;;;5056736;28;20134;-79
2023/05/30 04:22:35;;;;;;;1.08;0.80;;;21.00;68.10;;;;;;5051418;28;20040;-78
2023/05/30 04:25:01;;;;;;;1.85;1.23;;;20.90;68.00;;;;;;5055599;28;20048;-79
2023/05/30 04:27:26;;;;;;;1.42;0.93;;;21.00;68.10;;;;;;5049461;28;20044;-78
2023/05/30 04:29:53;;;;;;;1.48;1.38;;;21.00;68.10;;;;;;5048060;28;20050;-78
2023/05/30 04:32:19;;;;;;;1.35;1.20;;;21.00;68.20;;;;;;5041198;28;20052;-79
2023/05/30 04:34:45;;;;;;;1.13;0.95;;;21.00;68.10;;;;;;5053906;28;20044;-80
2023/05/30 04:37:11;;;;;;;0.93;0.80;;;21.00;67.80;;;;;;5025330;28;20037;-79
2023/05/30 04:39:37;;;;;;;1.48;1.30;;;20.90;67.80;;;;;;5026862;28;20040;-79
2023/05/30 04:42:04;;;;;;;1.60;1.20;;;20.80;67.10;;;;;;5029461;28;20602;-79
2023/05/30 04:44:32;;;;;;;1.88;1.60;;;20.80;66.40;;;;;;5047949;28;20041;-79
2023/05/30 04:46:58;;;;;;;2.40;1.15;;;20.80;65.60;;;;;;5050409;28;20045;-79
2023/05/30 04:49:23;;;;;;;2.22;1.65;;;20.70;64.90;;;;;;5045670;28;20087;-79
2023/05/30 04:51:50;;;;;;;2.92;1.88;;;20.70;64.50;;;;;;5043704;28;20533;-79
2023/05/30 04:54:15;;;;;;;2.65;1.40;;;20.70;64.00;;;;;;5051888;28;20040;-79
2023/05/30 04:56:41;;;;;;;2.45;1.58;;;20.70;63.70;;;;;;5029035;28;20053;-79
2023/05/30 04:59:07;;;;;;;3.53;2.17;;;20.70;63.40;;;;;;5046186;28;20032;-79
2023/05/30 05:01:35;;;;;;;3.83;1.90;;;20.60;63.10;;;;;;5050822;28;20536;-79
2023/05/30 05:04:02;;;;;;;3.78;1.90;;;20.60;62.70;;;;;;5045664;28;20041;-79
2023/05/30 05:06:27;;;;;;;3.63;1.80;;;20.50;62.50;;;;;;5049842;28;20045;-79
2023/05/30 05:08:53;;;;;;;2.97;2.00;;;20.50;62.50;;;;;;5045375;28;20086;-77
2023/05/30 05:11:18;;;;;;;4.93;2.33;;;20.50;62.20;;;;;;5039835;28;20072;-78
2023/05/30 05:13:44;;;;;;;4.90;2.92;;;20.50;61.30;;;;;;5033733;28;20045;-75
2023/05/30 05:16:10;;;;;;;5.72;3.05;;;20.20;60.10;;;;;;5045580;28;20029;-76
2023/05/30 05:18:35;;;;;;;10.38;3.00;;;18.90;60.70;;;;;;5045258;28;20044;-77
2023/05/30 05:21:01;;;;;;;8.27;3.20;;;18.10;62.70;;;;;;5047595;28;20120;-75
2023/05/30 05:23:28;;;;;;;5.10;2.70;;;17.60;64.90;;;;;;5047893;28;20608;-76
2023/05/30 05:25:53;;;;;;;8.15;2.97;;;17.40;65.40;;;;;;4691917;28;10000231;-76
2023/05/30 05:28:19;;;;;;;8.48;3.50;;;17.30;65.60;;;;;;5038129;28;20057;-75
2023/05/30 05:30:45;;;;;;;8.73;3.25;;;17.20;66.00;;;;;;5043403;28;20033;-76
2023/05/30 05:33:13;;;;;;;6.70;3.03;;;17.10;66.40;;;;;;5034128;28;20055;-76
2023/05/30 05:35:38;;;;;;;10.93;3.55;;;17.00;66.90;;;;;;5043632;28;20069;-76
2023/05/30 05:38:04;;;;;;;8.35;3.30;;;16.90;67.30;;;;;;5044291;28;20079;-76
2023/05/30 05:40:30;;;;;;;6.40;3.08;;;16.80;67.30;;;;;;5043685;28;20079;-75
2023/05/30 05:42:55;;;;;;;8.73;3.35;;;16.80;67.80;;;;;;5039185;28;20041;-76
2023/05/30 05:45:21;;;;;;;6.22;3.30;;;16.80;67.40;;;;;;5045200;28;20045;-75
2023/05/30 05:47:47;;;;;;;7.60;2.70;;;16.70;67.80;;;;;;5040185;28;20650;-75
2023/05/30 05:50:12;;;;;;;9.68;3.40;;;16.70;68.20;;;;;;5042323;28;20037;-75
2023/05/30 05:52:38;;;;;;;5.93;2.65;;;16.70;67.80;;;;;;5040392;28;20052;-76
2023/05/30 05:55:04;;;;;;;3.92;2.80;;;16.70;67.90;;;;;;5038853;28;20052;-76
2023/05/30 05:57:29;;;;;;;6.28;2.40;;;16.60;68.40;;;;;;5043340;28;20049;-77
2023/05/30 05:59:55;;;;;;;3.95;1.95;;;16.70;68.30;;;;;;5041901;28;20577;-76
2023/05/30 06:02:20;;;;;;;6.13;2.70;;;17.20;66.70;;;;;;5044080;28;20052;-77
2023/05/30 06:04:47;;;;;;;6.15;2.40;;;17.60;65.50;;;;;;5042607;28;20489;-76
2023/05/30 06:07:13;;;;;;;5.90;2.60;;;17.80;64.50;;;;;;5041072;28;20045;-76
2023/05/30 06:09:38;;;;;;;6.20;2.78;;;18.20;63.80;;;;;;5029215;28;20484;-76
2023/05/30 06:12:05;;;;;;;5.78;2.88;;;18.30;62.80;;;;;;5040737;28;20041;-77
2023/05/30 06:14:31;;;;;;;5.45;2.53;;;18.30;63.00;;;;;;5042442;28;20418;-77
2023/05/30 06:16:57;;;;;;;4.38;2.03;;;18.30;63.10;;;;;;5044980;28;20049;-76
2023/05/30 06:19:22;;;;;;;3.25;2.50;;;18.50;62.80;;;;;;5043493;28;20052;-76
2023/05/30 06:21:48;;;;;;;5.47;2.40;;;18.50;62.80;;;;;;5048431;28;20073;-76
2023/05/30 06:24:13;;;;;;;5.40;2.55;;;18.60;62.80;;;;;;5049735;28;20130;-75
2023/05/30 06:26:39;;;;;;;4.47;2.20;;;18.80;62.10;;;;;;5043407;28;20081;-78
2023/05/30 06:29:05;;;;;;;4.10;1.95;;;18.80;62.40;;;;;;5033521;28;20045;-77
2023/05/30 06:31:30;;;;;;;4.38;2.00;;;18.90;61.90;;;;;;5048265;28;20040;-77
2023/05/30 06:33:56;;;;;;;4.90;2.13;;;19.00;61.90;;;;;;5044544;28;20047;-77
2023/05/30 06:36:21;;;;;;;4.32;2.40;;;19.00;61.70;;;;;;5048486;28;20033;-77
2023/05/30 06:38:47;;;;;;;3.65;2.40;;;19.10;61.80;;;;;;5055515;28;20469;-77
2023/05/30 06:41:13;;;;;;;4.85;2.70;;;19.20;61.70;;;;;;5055633;28;20032;-77
2023/05/30 06:43:39;;;;;;;3.28;1.83;;;19.10;61.90;;;;;;5057664;28;20037;-77
2023/05/30 06:46:05;;;;;;;4.18;2.08;;;19.10;62.50;;;;;;5039217;28;20387;-77
2023/05/30 06:48:30;;;;;;;4.25;2.20;;;19.20;62.60;;;;;;5051837;28;20468;-77
2023/05/30 06:50:56;;;;;;;6.22;2.40;;;19.20;62.80;;;;;;5054764;28;20566;-77
2023/05/30 06:53:21;;;;;;;4.28;2.28;;;19.30;62.90;;;;;;5033688;28;20053;-77
2023/05/30 06:55:47;;;;;;;3.95;2.38;;;19.30;63.10;;;;;;5055291;28;20075;-77
2023/05/30 06:58:13;;;;;;;5.05;2.28;;;19.40;63.10;;;;;;5052440;28;20044;-77
2023/05/30 07:00:38;;;;;;;3.60;2.35;;;19.40;63.20;;;;;;5038549;28;20114;-77
2023/05/30 07:03:04;;;;;;;5.03;2.35;;;19.40;63.10;;;;;;5052807;28;20395;-77
2023/05/30 07:05:29;;;;;;;7.00;2.38;;;19.40;63.20;;;;;;5020925;28;20411;-77
2023/05/30 07:07:55;;;;;;;4.40;1.80;;;19.40;63.40;;;;;;5036730;28;20041;-77
2023/05/30 07:10:21;;;;;;;3.53;2.00;;;19.40;63.40;;;;;;5056229;28;20060;-77
2023/05/30 07:12:46;;;;;;;5.40;1.98;;;19.50;63.50;;;;;;5050650;28;20510;-77
2023/05/30 07:15:12;;;;;;;4.72;2.42;;;19.50;63.60;;;;;;5034297;28;20045;-77
2023/05/30 07:17:38;;;;;;;6.38;2.05;;;19.50;63.70;;;;;;5042306;28;20046;-77
2023/05/30 07:20:05;;;;;;;4.30;2.22;;;19.50;63.90;;;;;;5056572;28;20067;-77
2023/05/30 07:22:31;;;;;;;3.63;1.80;;;19.50;63.90;;;;;;5034614;28;20041;-77
2023/05/30 07:24:56;;;;;;;2.20;1.85;;;19.50;64.00;;;;;;5054897;28;20036;-77
2023/05/30 07:27:22;;;;;;;2.55;2.10;;;19.50;64.00;;;;;;5052098;28;20131;-77
2023/05/30 07:29:47;;;;;;;3.00;1.42;;;19.60;64.10;;;;;;5048453;28;20049;-77
2023/05/30 07:32:13;;;;;;;2.90;2.05;;;19.60;64.10;;;;;;5056420;28;20510;-77
2023/05/30 07:34:39;;;;;;;4.88;1.92;;;19.60;64.20;;;;;;5035871;28;20045;-77
2023/05/30 07:37:05;;;;;;;6.07;2.47;;;19.60;64.30;;;;;;5048457;28;20569;-76
2023/05/30 07:39:31;;;;;;;2.40;2.00;;;19.60;64.30;;;;;;5054121;28;20036;-76
2023/05/30 07:41:56;;;;;;;2.80;1.70;;;19.60;64.40;;;;;;5052877;28;20557;-76
2023/05/30 07:44:22;;;;;;;3.22;1.60;;;19.70;64.20;;;;;;5053714;28;20041;-75
2023/05/30 07:46:48;;;;;;;2.35;1.75;;;19.70;64.20;;;;;;5059806;28;20044;-75
2023/05/30 07:49:13;;;;;;;3.63;1.60;;;19.80;64.40;;;;;;5053351;28;20047;-75
2023/05/30 07:51:39;;;;;;;2.70;1.60;;;19.80;64.50;;;;;;5038393;28;20047;-76
2023/05/30 07:54:05;;;;;;;2.50;1.83;;;19.80;64.50;;;;;;5058791;28;20032;-75
2023/05/30 07:56:31;;;;;;;1.48;1.38;;;19.80;64.80;;;;;;5059575;28;20046;-75
2023/05/30 07:58:56;;;;;;;2.30;1.70;;;19.80;64.90;;;;;;5056518;28;20044;-74
2023/05/30 08:01:22;;;;;;;6.88;1.60;;;19.90;65.40;;;;;;5053746;28;21340;-75
2023/05/30 08:03:48;;;;;;;2.83;1.85;;;19.90;65.60;;;;;;5021467;28;20048;-75
2023/05/30 08:06:13;;;;;;;2.35;1.77;;;19.90;65.50;;;;;;5056537;28;20771;-75
2023/05/30 08:08:39;;;;;;;2.67;1.70;;;19.90;65.70;;;;;;5056185;28;20450;-76
2023/05/30 08:11:05;;;;;;;4.70;1.60;;;19.90;65.60;;;;;;5058195;28;20160;-75
2023/05/30 08:13:31;;;;;;;2.03;1.42;;;19.90;65.40;;;;;;5053238;28;20048;-75
2023/05/30 08:15:57;;;;;;;2.25;1.73;;;19.90;65.30;;;;;;5036252;28;20040;-76
2023/05/30 08:18:23;;;;;;;2.22;1.60;;;20.00;65.50;;;;;;5053097;28;20052;-76
2023/05/30 08:20:50;;;;;;;3.13;1.52;;;20.00;66.30;;;;;;5049740;28;20043;-75
2023/05/30 08:23:16;;;;;;;1.92;1.30;;;20.00;65.50;;;;;;5053507;28;20032;-76
2023/05/30 08:25:45;;;;;;;1.55;1.20;;;20.00;65.50;;;;;;5056202;28;20048;-76
2023/05/30 08:28:11;;;;;;;1.60;1.50;;;20.00;65.50;;;;;;5047552;28;20037;-75
2023/05/30 08:30:37;;;;;;;3.38;1.70;;;20.10;65.50;;;;;;5053422;28;20460;-74
2023/05/30 08:33:02;;;;;;;1.67;1.35;;;20.10;65.50;;;;;;5052538;28;20041;-75
2023/05/30 08:35:28;;;;;;;3.92;1.65;;;20.10;65.40;;;;;;5051511;28;20037;-76
2023/05/30 08:37:54;;;;;;;1.45;1.35;;;20.10;65.40;;;;;;5057227;28;20064;-75
2023/05/30 08:40:20;;;;;;;2.38;1.50;;;20.10;65.50;;;;;;5050174;28;20095;-76
2023/05/30 08:42:46;;;;;;;2.28;1.70;;;20.20;65.40;;;;;;5034620;28;20045;-75
2023/05/30 08:45:11;;;;;;;4.97;1.95;;;20.20;65.30;;;;;;5051839;28;20052;-75
2023/05/30 08:47:37;;;;;;;1.70;1.50;;;20.20;65.40;;;;;;5053259;28;20041;-75
2023/05/30 08:50:03;;;;;;;2.63;1.73;;;20.20;65.30;;;;;;5052874;28;20456;-75
2023/05/30 08:52:30;;;;;;;2.22;1.75;;;20.20;65.40;;;;;;5052212;28;20068;-75
2023/05/30 08:55:10;;;;;;;1.88;1.25;;;20.20;65.40;;;;;;5030493;28;20071;-75
2023/05/30 08:57:46;;;;;;;3.95;1.30;;;20.20;65.50;;;;;;5032287;28;20044;-75
2023/05/30 09:00:13;;;;;;;2.03;1.63;;;20.30;65.60;;;;;;5032793;28;20106;-75
2023/05/30 09:02:39;;;;;;;1.83;1.33;;;20.30;65.60;;;;;;5035396;28;20377;-75
2023/05/30 09:05:06;;;;;;;3.67;1.27;;;20.30;65.50;;;;;;5053175;28;20761;-75
2023/05/30 09:07:31;;;;;;;2.45;1.42;;;20.30;65.50;;;;;;5066422;28;20087;-75
2023/05/30 09:09:57;;;;;;;2.35;1.83;;;20.30;65.50;;;;;;5037911;28;20557;-75
2023/05/30 09:12:22;;;;;;;1.60;1.50;;;20.30;65.60;;;;;;5049614;28;20041;-75
2023/05/30 09:14:48;;;;;;;1.83;1.48;;;20.30;65.60;;;;;;5034149;28;20045;-75
2023/05/30 09:17:13;;;;;;;2.35;1.67;;;20.30;65.60;;;;;;5051593;28;20133;-75
2023/05/30 09:19:39;;;;;;;2.00;1.80;;;20.40;65.80;;;;;;5055791;28;20071;-75
2023/05/30 09:22:06;;;;;;;1.67;1.58;;;20.40;65.70;;;;;;5038558;28;20498;-75
2023/05/30 09:25:00;;;;;;;1.55;1.27;;;20.40;65.80;;;;;;5049281;28;20498;-75
2023/05/30 09:27:27;;;;;;;1.70;1.30;;;20.40;65.80;;;;;;5046506;28;20042;-75
2023/05/30 09:29:53;;;;;;;1.95;1.35;;;20.40;65.80;;;;;;5051874;28;20040;-75
2023/05/30 09:32:19;;;;;;;2.25;1.70;;;20.40;65.70;;;;;;5054061;28;20055;-75
2023/05/30 09:34:55;;;;;;;1.58;1.35;;;20.40;65.70;;;;;;5055241;28;20040;-75
2023/05/30 09:37:21;;;;;;;2.95;1.45;;;20.50;65.80;;;;;;5052518;28;20090;-75
2023/05/30 09:40:06;;;;;;;2.40;1.33;;;20.50;65.80;;;;;;5049685;28;20138;-76
2023/05/30 09:42:47;;;;;;;1.75;1.10;;;20.50;65.90;;;;;;5035438;28;20136;-75
2023/05/30 09:45:15;;;;;;;1.58;1.45;;;20.50;65.90;;;;;;5050004;28;20091;-75
2023/05/30 09:47:45;;;;;;;1.73;1.33;;;20.60;66.20;;;;;;5044076;28;20696;-75
2023/05/30 09:50:14;;;;;;;1.67;1.20;;;20.50;66.20;;;;;;5053383;28;20059;-75
2023/05/30 09:52:40;;;;;;;1.50;1.40;;;20.50;66.10;;;;;;5058779;28;20055;-75
2023/05/30 09:55:07;;;;;;;1.40;1.30;;;20.60;66.40;;;;;;5053649;28;20041;-75
2023/05/30 09:57:36;;;;;;;1.80;1.67;;;20.60;66.20;;;;;;5039997;28;20183;-75
2023/05/30 10:00:09;;;;;;;1.85;1.70;;;20.60;67.00;;;;;;5035327;28;20477;-75
2023/05/30 10:02:42;;;;;;;2.50;1.48;;;20.60;66.20;;;;;;5055530;28;20053;-75
2023/05/30 10:05:19;;;;;;;1.52;1.42;;;20.60;66.10;;;;;;5058382;28;20041;-75
2023/05/30 10:07:45;;;;;;;1.95;1.45;;;20.60;66.80;;;;;;5037975;28;20041;-75
2023/05/30 10:10:12;;;;;;;1.58;1.23;;;20.60;66.00;;;;;;5052020;28;20092;-75
2023/05/30 10:12:38;;;;;;;1.77;1.27;;;20.60;66.10;;;;;;5039928;28;20429;-75
2023/05/30 10:15:04;;;;;;;1.13;1.02;;;20.60;66.00;;;;;;5055126;28;20037;-75
2023/05/30 10:17:32;;;;;;;1.10;1.10;;;20.70;65.90;;;;;;5055315;28;20055;-76
2023/05/30 10:20:01;;;;;;;1.50;1.40;;;20.70;65.80;;;;;;5045598;28;20044;-75
2023/05/30 10:22:30;;;;;;;1.40;1.08;;;20.70;65.70;;;;;;5043136;28;20060;-75
2023/05/30 10:24:55;;;;;;;1.50;1.10;;;20.70;65.70;;;;;;5049514;28;20569;-75
2023/05/30 10:27:27;;;;;;;1.52;1.20;;;20.70;66.10;;;;;;5049596;28;20054;-75
2023/05/30 10:30:06;;;;;;;1.17;1.08;;;20.70;65.70;;;;;;5043366;28;20497;-75
2023/05/30 10:32:40;;;;;;;1.52;1.38;;;20.70;65.50;;;;;;5053858;28;20514;-76
2023/05/30 10:35:08;;;;;;;1.92;1.10;;;20.80;65.60;;;;;;5051751;28;20088;-75
2023/05/30 10:37:35;;;;;;;2.67;1.33;;;20.80;65.80;;;;;;5023809;28;20032;-76
2023/05/30 10:40:22;;;;;;;3.05;1.30;;;20.80;65.80;;;;;;5012735;28;20052;-76
2023/05/30 10:42:56;;;;;;;1.73;1.45;;;20.90;66.80;;;;;;5040042;28;20088;-75
2023/05/30 10:45:34;;;;;;;;;;;20.80;67.00;;;;;;5046792;28;20048;-76
2023/05/30 10:48:05;;;;;;;2.10;1.90;;;20.80;67.70;;;;;;5048740;28;19931;-75
2023/05/30 10:50:46;;;;;;;2.00;1.80;;;20.90;68.40;;;;;;5045538;28;20102;-75
2023/05/30 10:53:15;;;;;;;1.75;1.65;;;20.90;68.00;;;;;;5041029;28;20059;-75
2023/05/30 10:55:48;;;;;;;1.60;1.50;;;20.90;69.50;;;;;;5034325;28;20064;-75
2023/05/30 10:58:39;;;;;;;1.65;1.40;;;20.90;69.00;;;;;;5044275;28;20087;-75
2023/05/30 11:01:24;;;;;;;2.40;1.55;;;20.90;69.50;;;;;;5052705;28;20616;-75
2023/05/30 11:03:58;;;;;;;1.55;1.40;;;20.90;69.60;;;;;;5046193;28;20028;-74
2023/05/30 11:06:28;;;;;;;1.60;1.50;;;20.90;68.90;;;;;;5046087;28;20057;-74
2023/05/30 11:08:54;;;;;;;1.40;1.30;;;21.00;68.60;;;;;;5049116;28;20576;-75
2023/05/30 11:11:21;;;;;;;1.55;1.33;;;20.90;68.20;;;;;;5047451;28;20439;-75
2023/05/30 11:13:47;;;;;;;1.45;1.35;;;21.00;67.60;;;;;;5032835;28;20301;-75
2023/05/30 11:16:25;;;;;;;1.77;1.30;;;21.00;67.20;;;;;;5041049;28;20582;-75
2023/05/30 11:18:54;;;;;;;2.10;1.60;;;21.00;68.20;;;;;;5040023;28;20218;-76
2023/05/30 11:21:58;;;;;;;1.90;1.42;;;21.00;67.10;;;;;;5042928;28;20044;-75
2023/05/30 11:24:24;;;;;;;3.05;1.38;;;21.00;67.30;;;;;;5046493;28;20072;-75
2023/05/30 11:27:07;;;;;;;1.35;1.25;;;21.00;66.20;;;;;;5045713;28;20563;-77
2023/05/30 11:29:49;;;;;;;1.48;1.30;;;21.10;66.70;;;;;;5055591;28;20510;-75
2023/05/30 11:32:28;;;;;;;4.60;1.20;;;21.00;66.30;;;;;;5056776;28;20037;-75
2023/05/30 11:35:01;;;;;;;1.63;1.10;;;21.00;67.00;;;;;;5053364;28;20057;-76
2023/05/30 11:37:28;;;;;;;1.50;1.40;;;21.00;65.90;;;;;;5029551;28;20607;-75
2023/05/30 11:39:57;;;;;;;1.58;1.20;;;21.10;66.60;;;;;;5046322;28;20057;-75
2023/05/30 11:42:23;;;;;;;1.40;1.30;;;21.10;66.70;;;;;;5030489;28;20052;-75
2023/05/30 11:44:49;;;;;;;2.20;1.27;;;21.10;66.70;;;;;;5056320;28;20131;-75
2023/05/30 11:47:15;;;;;;;3.08;1.42;;;21.10;66.40;;;;;;5055926;28;20147;-75
2023/05/30 11:49:41;;;;;;;1.20;1.10;;;21.10;66.20;;;;;;5057627;28;20053;-75
2023/05/30 11:52:08;;;;;;;1.25;1.08;;;21.10;66.30;;;;;;5053607;28;20048;-76
2023/05/30 11:54:33;;;;;;;0.98;0.98;;;21.10;66.20;;;;;;5039916;28;20097;-75
2023/05/30 11:56:59;;;;;;;1.00;1.00;;;21.10;66.20;;;;;;5053241;28;20044;-75
2023/05/30 11:59:25;;;;;;;1.45;1.35;;;21.10;66.10;;;;;;5037805;28;20057;-75
2023/05/30 12:01:52;;;;;;;1.40;1.20;;;21.10;66.00;;;;;;5059023;28;20588;-75
2023/05/30 12:04:20;;;;;;;1.65;1.10;;;21.10;66.00;;;;;;5052779;28;20063;-75
2023/05/30 12:06:46;;;;;;;1.15;0.98;;;21.20;66.00;;;;;;5057262;28;20098;-75
2023/05/30 12:09:12;;;;;;;1.25;1.02;;;21.10;65.90;;;;;;5052277;28;20044;-75
2023/05/30 12:11:37;;;;;;;1.05;0.95;;;21.10;65.90;;;;;;5055333;28;20120;-75
2023/05/30 12:14:03;;;;;;;1.40;1.00;;;21.20;65.90;;;;;;5058148;28;20430;-75
2023/05/30 12:16:29;;;;;;;1.50;0.88;;;21.20;65.80;;;;;;5055727;28;20051;-75
2023/05/30 12:18:56;;;;;;;0.80;0.80;;;21.20;65.80;;;;;;5052322;28;20044;-75
2023/05/30 12:21:21;;;;;;;0.88;0.80;;;21.20;65.90;;;;;;5051437;28;20173;-75
2023/05/30 12:23:47;;;;;;;0.90;0.90;;;21.20;65.80;;;;;;5051671;28;20079;-75
2023/05/30 12:26:17;;;;;;;1.00;0.90;;;21.20;65.90;;;;;;5056325;28;20426;-75
2023/05/30 12:28:46;;;;;;;1.10;1.00;;;21.20;65.80;;;;;;5053647;28;20048;-75
2023/05/30 12:31:22;;;;;;;0.80;0.80;;;21.20;65.80;;;;;;5054691;28;20132;-75
2023/05/30 12:33:47;;;;;;;0.98;0.90;;;21.20;65.80;;;;;;5054056;28;20139;-75
2023/05/30 12:36:13;;;;;;;1.10;1.08;;;21.20;65.80;;;;;;5051196;28;20195;-75
2023/05/30 12:38:38;;;;;;;1.35;1.00;;;21.20;66.60;;;;;;5031811;28;20045;-75
2023/05/30 12:41:05;;;;;;;1.08;1.00;;;21.20;65.70;;;;;;5038560;28;20034;-75
2023/05/30 12:43:30;;;;;;;1.00;0.90;;;21.20;65.70;;;;;;5035942;28;20045;-75
2023/05/30 12:46:05;;;;;;;0.90;0.80;;;21.20;65.70;;;;;;5053374;28;20041;-75
2023/05/30 12:48:31;;;;;;;1.25;1.02;;;21.20;65.50;;;;;;5049067;28;20053;-75
2023/05/30 12:50:58;;;;;;;1.08;1.08;;;21.20;65.50;;;;;;5055868;28;20041;-75